EW6685 Weather Reports


Display with metric or nautical units.
time (UTC)temp
F
wind
direction
speed
MPH
gust
MPH
rain 1hr
in
rain 24hr
in
rain mn
in
humidity
%
barometer
mb
20210926213113 64 246 8.0 17.0 0.00 0.00 0.00 43 1008.6
20210926211644 64 256 12.0 23.0 0.00 0.00 0.00 43 1008.5
20210926210105 64 239 11.0 18.0 0.00 0.00 0.00 44 1008.7
20210926204649 64 238 10.0 18.0 0.00 0.00 0.00 45 1008.8
20210926203114 64 240 11.0 21.0 0.00 0.00 0.00 42 1009.0
20210926201623 65 265 10.0 19.0 0.00 0.00 0.00 41 1009.2
20210926200102 66 260 10.0 20.0 0.00 0.00 0.00 42 1009.4
20210926194608 67 244 12.0 20.0 0.00 0.00 0.00 40 1009.6
20210926193033 65 229 11.0 23.0 0.00 0.00 0.00 44 1009.8
20210926191555 65 212 10.0 19.0 0.00 0.00 0.00 45 1009.9
20210926190052 64 220 13.0 22.0 0.00 0.00 0.00 48 1010.3
20210926184551 63 227 12.0 23.0 0.00 0.00 0.00 50 1010.4
20210926183046 62 251 10.0 21.0 0.00 0.00 0.00 51 1010.4
20210926181538 62 251 14.0 21.0 0.00 0.00 0.00 51 1010.6
20210926180028 62 235 11.0 21.0 0.00 0.00 0.00 51 1010.6
20210926174525 61 248 11.0 19.0 0.00 0.00 0.00 54 1010.7
20210926173018 58 245 8.0 16.0 0.00 0.00 0.00 58 1011.0
20210926171545 59 238 13.0 18.0 0.00 0.00 0.00 57 1011.1
20210926170019 59 298 13.0 18.0 0.00 0.00 0.00 56 1010.9
20210926164537 59 238 12.0 17.0 0.00 0.00 0.00 55 1010.9
20210926163016 59 254 11.0 15.0 0.00 0.00 0.00 55 1011.0
20210926161508 59 256 9.0 17.0 0.00 0.00 0.00 56 1011.1
20210926160005 58 269 6.0 15.0 0.00 0.00 0.00 58 1011.0
20210926154533 58 242 7.0 13.0 0.00 0.00 0.00 59 1011.1
20210926153004 57 244 8.0 15.0 0.00 0.00 0.00 60 1011.1
20210926151730 56 222 9.0 13.0 0.00 0.00 0.00 61 1011.1
20210926150148 56 279 6.0 10.0 0.00 0.00 0.00 62 1011.1
20210926144606 56 288 4.0 10.0 0.00 0.00 0.00 63 1011.1
20210926143149 55 252 4.0 9.0 0.00 0.00 0.00 64 1010.9
20210926141600 54 254 4.0 10.0 0.00 0.00 0.00 66 1010.9
20210926140103 54 256 4.0 10.0 0.00 0.00 0.00 66 1010.9
20210926134622 54 272 5.0 11.0 0.00 0.00 0.00 66 1010.7
20210926133051 54 304 6.0 12.0 0.00 0.00 0.00 65 1010.5
20210926131709 54 275 4.0 12.0 0.00 0.00 0.00 65 1010.5
20210926130236 54 269 5.0 11.0 0.00 0.00 0.00 65 1010.5
20210926124600 54 295 2.0 9.0 0.00 0.00 0.00 64 1010.3
20210926123102 54 294 3.0 7.0 0.00 0.00 0.00 64 1010.4
20210926121614 54 293 2.0 7.0 0.00 0.00 0.00 64 1010.3
20210926120054 54 294 1.0 9.0 0.00 0.00 0.00 64 1010.4
20210926114728 54 315 2.0 8.0 0.00 0.00 0.00 64 1010.4
20210926113115 54 318 2.0 9.0 0.00 0.00 0.00 63 1010.1
20210926111604 54 311 1.0 9.0 0.00 0.00 0.00 64 1010.1
20210926110053 54 308 3.0 9.0 0.00 0.00 0.00 65 1010.0
20210926104540 54 309 2.0 10.0 0.00 0.00 0.00 64 1010.1
20210926103039 54 277 2.0 7.0 0.00 0.00 0.00 64 1010.1
20210926101546 54 274 2.0 6.0 0.00 0.00 0.00 63 1010.1
20210926100034 54 273 3.0 9.0 0.00 0.00 0.00 63 1010.2
20210926094739 54 307 3.0 8.0 0.00 0.00 0.00 63 1010.1
20210926093128 54 307 1.0 5.0 0.00 0.00 0.00 63 1010.2
20210926091530 53 36 0.0 3.0 0.00 0.00 0.00 66 1010.4
20210926090028 53 36 0.0 3.0 0.00 0.00 0.00 66 1010.5
20210926084629 54 36 0.0 3.0 0.00 0.00 0.00 64 1010.6
20210926083025 54 36 2.0 8.0 0.00 0.00 0.00 64 1010.6
20210926081602 53 34 5.0 8.0 0.00 0.00 0.00 66 1010.7
20210926080041 53 34 4.0 6.0 0.00 0.00 0.00 65 1010.8
20210926074616 53 32 2.0 8.0 0.00 0.00 0.00 65 1011.0
20210926073032 52 32 6.0 10.0 0.00 0.00 0.00 67 1010.8
20210926071528 52 33 5.0 10.0 0.00 0.00 0.00 68 1011.0
20210926070012 53 42 8.0 13.0 0.00 0.00 0.00 68 1010.9
20210926064507 52 61 5.0 9.0 0.00 0.00 0.00 68 1011.2
20210926063010 53 59 4.0 9.0 0.00 0.00 0.00 66 1011.3
20210926061503 53 57 4.0 7.0 0.00 0.00 0.00 65 1011.3
20210926060103 54 51 4.0 7.0 0.00 0.00 0.00 64 1011.3
20210926054657 54 47 5.0 10.0 0.00 0.00 0.00 64 1011.4
20210926053154 54 44 4.0 9.0 0.00 0.00 0.00 63 1011.4
20210926051637 54 39 5.0 7.0 0.00 0.00 0.00 63 1011.4
20210926050151 54 31 4.0 6.0 0.00 0.00 0.00 62 1011.2
20210926044605 54 280 2.0 4.0 0.00 0.00 0.00 63 1011.4
20210926043142 54 273 0.0 0.0 0.00 0.00 0.00 63 1011.4
20210926041609 54 273 0.0 0.0 0.00 0.00 0.00 63 1011.3
20210926040102 54 273 0.0 1.0 0.00 0.00 0.00 62 1011.4
20210926034600 55 273 0.0 1.0 0.00 0.00 0.00 62 1011.3
20210926033118 55 273 0.0 1.0 0.00 0.00 0.00 61 1011.2
20210926031604 55 273 0.0 2.0 0.00 0.00 0.00 61 1011.2
20210926030120 55 273 0.0 6.0 0.00 0.00 0.00 60 1011.2
20210926024611 56 269 4.0 8.0 0.00 0.00 0.00 59 1011.3
20210926023121 56 266 3.0 8.0 0.00 0.00 0.00 59 1011.2
20210926021557 57 276 3.0 9.0 0.00 0.00 0.00 58 1011.2
20210926020051 57 289 3.0 8.0 0.00 0.00 0.00 57 1010.9
20210926014606 58 261 7.0 11.0 0.00 0.00 0.00 54 1010.7
20210926013050 59 253 6.0 14.0 0.00 0.00 0.00 52 1010.6
20210926011616 60 217 7.0 12.0 0.00 0.00 0.00 51 1010.5
20210926010048 60 235 8.0 15.0 0.00 0.00 0.00 51 1010.4
20210926004550 61 253 10.0 15.0 0.00 0.00 0.00 50 1010.4
20210926003052 61 235 10.0 16.0 0.00 0.00 0.00 50 1010.3
20210926001530 62 236 12.0 19.0 0.00 0.00 0.00 48 1010.1
20210926000057 63 196 8.0 22.0 0.00 0.00 0.00 46 1010.1
20210925234533 64 156 8.0 19.0 0.00 0.00 0.00 44 1009.8
20210925233105 67 186 12.0 18.0 0.00 0.00 0.00 33 1009.6
20210925231540 67 147 4.0 12.0 0.00 0.00 0.00 29 1009.4
20210925230030 68 156 11.0 18.0 0.00 0.00 0.00 28 1009.6
20210925224534 69 182 11.0 15.0 0.00 0.00 0.00 27 1009.2
20210925223041 71 221 8.0 15.0 0.00 0.00 0.00 25 1009.1
20210925221526 70 221 4.0 15.0 0.00 0.00 0.00 26 1009.5
20210925220048 69 186 10.0 17.0 0.00 0.00 0.00 26 1009.7
20210925214520 71 198 4.0 17.0 0.00 0.00 0.00 25 1009.8